Terminal Aerodrome Forecast
Issued by NWS North Platte, NE

Home | Current Version | Previous Version | Graphics & Text | Print | Product List | Glossary On
Versions: 1 2 3 4 5 6 7 8 9 10 11 12 13 14 15 16
000
FTUS43 KLBF 141437 AAA
TAFVTN
TAF AMD
KVTN 141437Z 1415/1512 31011G17KT P6SM -SN OVC013
      TEMPO 1415/1417 31011G17KT 2SM -SN BR BKN010
     FM141700 33018G25KT P6SM VCSH OVC025
     FM142300 33014G23KT P6SM BKN035
     FM150300 31006KT P6SM BKN035=

USA.gov is the U.S. government's official web portal to all federal, state and local government web resources and services.